Tiempo atmosférico en la estación meteorológica de Castell, Platja d'Aro, Girona (14 m.)



Fecha
DESCASC
Temp. máxima en grados centígrados (hora)
DESCASC
Temp. mínima en grados centígrados (hora)
DESCASC
Temp. media en grados centígrados
DESCASC
Racha de viento máxima en m/sg (hora)
DESCASC
Velocidad máxima media en intervalos de 10 minutos(hora)
DESCASC
Precipitaciones diarias en mm
DESCASC
Precipitaciones de 00:00 a 06:00 en mm
DESCASC
Precipitaciones de 06:00 a 12:00 en mm
DESCASC
Precipitaciones de 12:00 a 18:00 en mm
DESCASC
Precipitaciones de 18:00 a 24:00 en mm
DESCASC
18-01-2018 14.5 (15:50) 4.6 (23:59) 9.5 6.67 (14:00) 4.17 (14:00) 0.2 0 0.2 0 0
17-01-2018 15.7 (14:50) 4.5 (08:30) 10.1 6.67 (15:50) 3.06 (15:50) 0 0 0 0 0
16-01-2018 16.4 (13:20) 3.4 (07:50) 9.9 5.83 (11:40) 3.33 (11:40) 0 0 0 0 0
15-01-2018 14.4 (13:40) 4.6 (08:50) 9.5 7.22 (13:50) 3.61 (13:50) 0 0 0 0 0
14-01-2018 11.7 (01:20) 7.5 (00:00) 9.6 7.5 (00:20) 3.33 (06:00) 6.4 6 0.4 0 0
13-01-2018 14.3 (13:00) -0.6 (-00:0) 6.9 10.28 (13:20) 4.44 (23:40) 0.6 0 0 0 0.6
12-01-2018 14.6 (13:30) 1 (00:00) 7.8 11.11 (08:50) 5.56 (08:50) 0 0 0 0 0
11-01-2018 -- (--) -- (--) -- -- (--) -- (--) -- 0.2 0 -- 0
10-01-2018 14.2 (13:00) 3.5 (00:00) 8.8 10 (00:50) 5.56 (01:20) 0 0 0 0 0
09-01-2018 15 (13:00) 3.1 (00:00) 9 11.39 (12:40) 5.28 (13:40) 0 0 0 0 0
08-01-2018 12.9 (15:20) 3.5 (00:00) 8.2 8.06 (17:10) 3.89 (15:00) 0 0 0 0 0
07-01-2018 14.4 (11:30) 5.9 (00:00) 10.1 9.17 (14:50) 6.11 (14:50) 8.8 0 0 3.6 5.2
06-01-2018 15.6 (14:20) 3.9 (00:00) 9.8 8.33 (18:50) 4.44 (18:50) 0 0 0 0 0
05-01-2018 20.3 (13:40) 6 (00:00) 13.1 8.61 (14:50) 5 (13:50) 0 0 0 0 0
04-01-2018 19.1 (14:40) 6.7 (07:40) 12.9 5 (12:40) 2.78 (15:10) 0 0 0 0 0
03-01-2018 19.3 (13:50) 6.7 (00:00) 13 6.67 (12:00) 3.61 (11:20) 0 0 0 0 0
02-01-2018 13.4 (15:40) 1.8 (00:00) 7.6 5 (23:50) 2.5 (11:50) 0 0 0 0 0
01-01-2018 15.4 (12:40) 4.6 (00:00) 10 13.61 (17:10) 6.94 (17:00) 0.2 0.2 0 0 0
31-12-2017 17.4 (13:30) 4.2 (00:00) 10.8 8.33 (13:20) 4.17 (12:20) 0 0 0 0 0
30-12-2017 19.8 (15:10) 2.4 (00:00) 11.1 5.83 (12:50) 3.33 (12:50) 0 0 0 0 0
29-12-2017 11.1 (15:40) -0.4 (00:00) 5.4 5 (04:20) 2.78 (08:20) 0 0 0 0 0
28-12-2017 11.3 (15:30) -1.3 (-00:0) 5 5.83 (11:10) 3.33 (10:50) 0 0 0 0 0
27-12-2017 13.4 (15:40) 0.8 (00:00) 7.1 15.56 (01:50) 7.22 (01:20) 0 0 0 0 0
26-12-2017 14.2 (14:20) 3.9 (00:00) 9 11.11 (23:50) 5.83 (22:00) 0 0 0 0 0
25-12-2017 16.5 (15:00) 1.2 (00:00) 8.9 8.33 (13:10) 4.72 (14:10) 0 0 0 0 0
24-12-2017 13.1 (15:20) 2.4 (00:00) 7.8 5.56 (09:40) 3.33 (10:50) 0 0 0 0 0

Gráficas

Temp. máximas Temp. mínimas Temp. medias Precipitaciones Rachas de viento máximas Velocidades máximas media en intervalos de 10 minutos

Datos horarios

Fecha y hora oficial Temperatura (ºC) Velocidad del viento (km/h) Dirección del viento Racha (km/h) Dirección de racha Precipitación (mm) Presión (hPa) Tendencia (hPa) Humedad (%)
2018-01-22 23:00:00 9.3 8 Oeste 15 Oeste 0 -- -- 93
2018-01-22 22:00:00 9 6 Oeste 12 Oeste 0 -- -- 93
2018-01-22 21:00:00 9.8 6 Oeste 12 Oeste 0 -- -- 92
2018-01-22 20:00:00 10.7 5 Oeste 10 Oeste 0 -- -- 92
2018-01-22 19:00:00 11.6 4 Oeste 8 Oeste 0 -- -- 88
2018-01-22 18:00:00 13.6 3 Sudoeste 11 Este 0 -- -- 86
2018-01-22 17:00:00 14.8 6 Sudeste 11 Sudeste 0 -- -- 85
2018-01-22 16:00:00 15 7 Este 13 Este 0 -- -- 84
2018-01-22 15:00:00 15.5 7 Este 18 Este 0 -- -- 81
2018-01-22 14:00:00 16.2 10 Este 20 Este 0 -- -- 77
2018-01-22 13:00:00 16.3 7 Este 17 Este 0 -- -- 75
2018-01-22 12:00:00 16.9 2 Este 10 Oeste 0 -- -- 65
2018-01-22 11:00:00 14.3 6 Oeste 12 Oeste 0 -- -- 68
2018-01-22 10:00:00 10.4 5 Oeste 13 Oeste 0 -- -- 87
2018-01-22 09:00:00 7.1 8 Oeste 17 Sudoeste 0 -- -- 95
2018-01-22 08:00:00 6.5 8 Oeste 17 Oeste 0 -- -- 94
2018-01-22 07:00:00 6.8 8 Oeste 15 Sudoeste 0 -- -- 94
2018-01-22 06:00:00 7.1 8 Sudoeste 18 Oeste 0 -- -- 94
2018-01-22 05:00:00 7.2 9 Oeste 18 Oeste 0 -- -- 93
2018-01-22 04:00:00 7.6 8 Oeste 18 Oeste 0 -- -- 92
2018-01-22 03:00:00 7.9 9 Oeste 17 Sudoeste 0 -- -- 90
2018-01-22 02:00:00 8.1 7 Oeste 13 Sudoeste 0 -- -- 90
2018-01-22 01:00:00 8.6 7 Oeste 17 Oeste 0 -- -- 90
2018-01-22 00:00:00 8.4 5 Oeste 11 Oeste 0 -- -- 88
2018-01-21 23:00:00 9.3 5 Oeste 12 Sudoeste 0 -- -- 87
2018-01-21 22:00:00 10 6 Oeste 13 Sudoeste 0 -- -- 86
2018-01-21 21:00:00 10.7 6 Oeste 14 Oeste 0 -- -- 83
2018-01-21 20:00:00 11.4 6 Oeste 8 Oeste 0 -- -- 80
2018-01-21 19:00:00 12.9 3 Este 13 Sur 0 -- -- 75
2018-01-21 18:00:00 15.3 3 Norte 9 Sudoeste 0 -- -- 68
2018-01-21 17:00:00 17 5 Este 9 Este 0 -- -- 64
2018-01-21 16:00:00 17.6 4 Nordeste 8 Este 0 -- -- 63
2018-01-21 15:00:00 18 4 Este 9 Sudoeste 0 -- -- 61
2018-01-21 14:00:00 17.4 6 Este 11 Este 0 -- -- 63
2018-01-21 13:00:00 19.3 4 Sudeste 12 Oeste 0 -- -- 51
2018-01-21 12:00:00 19.3 7 Oeste 14 Oeste 0 -- -- 50
2018-01-21 11:00:00 16.6 7 Oeste 17 Sudoeste 0 -- -- 60
2018-01-21 10:00:00 13.1 9 Oeste 14 Oeste 0 -- -- 72
2018-01-21 09:00:00 9.6 7 Oeste 18 Oeste 0 -- -- 81
2018-01-21 08:00:00 8.8 8 Oeste 18 Oeste 0 -- -- 81
2018-01-21 07:00:00 9.4 6 Oeste 15 Oeste 0 -- -- 78
2018-01-21 06:00:00 9.5 7 Oeste 15 Oeste 0 -- -- 79
2018-01-21 05:00:00 9.9 9 Oeste 16 Oeste 0 -- -- 77
2018-01-21 04:00:00 9.5 8 Oeste 15 Oeste 0 -- -- 79
2018-01-21 03:00:00 9.6 4 Sudoeste 17 Oeste 0 -- -- 79
2018-01-21 02:00:00 10 8 Oeste 22 Oeste 0 -- -- 76
2018-01-21 01:00:00 9.7 9 Oeste 17 Oeste 0 -- -- 78
2018-01-21 00:00:00 10.2 6 Oeste 19 Oeste 0 -- -- 76
2018-01-20 23:00:00 10.1 7 Oeste 12 Oeste 0 -- -- 79
2018-01-20 22:00:00 10.4 6 Sudoeste 13 Sudoeste 0 -- -- 79
2018-01-20 21:00:00 10.6 4 Oeste 10 Sudoeste 0 -- -- 80
2018-01-20 20:00:00 10.8 4 Oeste 10 Oeste 0 -- -- 79
2018-01-20 19:00:00 11 4 Oeste 10 Noroeste 0 -- -- 80
2018-01-20 18:00:00 12.1 0 Calma 7 Sudoeste 0 -- -- 76
2018-01-20 17:00:00 13 3 Este 26 Sudoeste 0 -- -- 70
2018-01-20 16:00:00 12.9 11 Sur 20 Sur 0 -- -- 66
2018-01-20 15:00:00 13.2 10 Sudoeste 27 Sudoeste 0 -- -- 60
2018-01-20 14:00:00 13.2 15 Sur 28 Sudoeste 0 -- -- 62
2018-01-20 13:00:00 12.7 9 Sudoeste 25 Sudoeste 0 -- -- 65
2018-01-20 12:00:00 13 8 Sur 16 Sudoeste 0 -- -- 72
2018-01-20 11:00:00 10.8 4 Oeste 13 Sudoeste 0 -- -- 76
2018-01-20 10:00:00 8.2 8 Oeste 18 Oeste 0 -- -- 85
2018-01-20 09:00:00 5.5 7 Oeste 13 Sudoeste 0 -- -- 93
2018-01-20 08:00:00 6.1 9 Sudoeste 14 Oeste 0 -- -- 90
2018-01-20 07:00:00 7 7 Oeste 12 Oeste 0 -- -- 89
2018-01-20 06:00:00 7.4 7 Oeste 16 Sudoeste 0 -- -- 89
2018-01-20 05:00:00 7.5 6 Oeste 13 Sudoeste 0 -- -- 91
2018-01-20 04:00:00 7.4 4 Oeste 12 Oeste 0 -- -- 93
2018-01-20 03:00:00 6.8 6 Oeste 10 Oeste 0 -- -- 94
2018-01-20 02:00:00 6.6 5 Oeste 12 Oeste 0 -- -- 93
2018-01-20 01:00:00 7.1 5 Oeste 13 Oeste 0 -- -- 92
2018-01-20 00:00:00 8.1 5 Oeste 9 Oeste 0 -- -- 90
2018-01-19 23:00:00 8.6 4 Sudoeste 8 Oeste 0 -- -- 91
2018-01-19 22:00:00 8.8 4 Oeste 10 Oeste 0 -- -- 91
2018-01-19 21:00:00 9.6 6 Oeste 10 Oeste 0 -- -- 88
2018-01-19 20:00:00 10.2 5 Oeste 10 Sudoeste 0 -- -- 87
2018-01-19 19:00:00 10.6 5 Oeste 11 Sudoeste 0 -- -- 86
2018-01-19 18:00:00 11.3 4 Oeste 7 Noroeste 0 -- -- 83
2018-01-19 17:00:00 11.9 4 Oeste 8 Oeste 0 -- -- 82
2018-01-19 16:00:00 12.1 2 Oeste 11 Este 0 -- -- 80
2018-01-19 15:00:00 12.5 5 Sudeste 13 Este 0 -- -- 76
2018-01-19 14:00:00 12.7 8 Este 13 Este 0 -- -- 71
2018-01-19 13:00:00 10.6 4 Oeste 14 Oeste 0 -- -- 74
2018-01-19 12:00:00 8.6 7 Oeste 17 Oeste 0 -- -- 83
2018-01-19 11:00:00 6.5 8 Oeste 19 Oeste 0 -- -- 88
2018-01-19 10:00:00 4.6 8 Oeste 15 Oeste 0 -- -- 91
2018-01-19 09:00:00 3.4 10 Oeste 15 Oeste 0 -- -- 95
2018-01-19 08:00:00 2.7 8 Oeste 16 Sudoeste 0 -- -- 95
2018-01-19 07:00:00 2.6 6 Oeste 15 Oeste 0 -- -- 95
2018-01-19 06:00:00 2.4 8 Oeste 17 Oeste 0 -- -- 95
2018-01-19 05:00:00 3.3 8 Oeste 14 Oeste 0 -- -- 94
2018-01-19 04:00:00 3.7 8 Oeste 14 Oeste 0 -- -- 95
2018-01-19 03:00:00 3.2 8 Oeste 15 Oeste 0 -- -- 93
2018-01-19 02:00:00 3.8 8 Oeste 15 Oeste 0 -- -- 92
2018-01-19 01:00:00 4.3 7 Oeste 15 Oeste 0 -- -- 91
2018-01-19 00:00:00 4.6 8 Oeste 13 Sudoeste 0 -- -- 90
2018-01-18 23:00:00 4.9 6 Oeste 13 Oeste 0 -- -- 91
2018-01-18 22:00:00 5.4 8 Oeste 15 Oeste 0 -- -- 90
2018-01-18 21:00:00 6 8 Oeste 14 Oeste 0 -- -- 89
2018-01-18 20:00:00 7.4 10 Oeste 15 Oeste 0 -- -- 86
2018-01-18 19:00:00 8.2 6 Oeste 8 Oeste 0 -- -- 84
2018-01-18 18:00:00 10.5 2 Oeste 9 Sudoeste 0 -- -- 80
2018-01-18 17:00:00 12.7 6 Sur 16 Sudoeste 0 -- -- 69
2018-01-18 16:00:00 14.4 8 Sur 22 Sudoeste 0 -- -- 59
2018-01-18 15:00:00 14.3 11 Sur 22 Sur 0 -- -- 57
2018-01-18 14:00:00 13.7 15 Sur 24 Sudoeste 0 -- -- 69
2018-01-18 13:00:00 13.1 9 Este 15 Sudeste 0 -- -- 77
2018-01-18 12:00:00 12.9 7 Este 17 Este 0 -- -- 77
2018-01-18 11:00:00 9.7 0 Calma 12 Oeste 0 -- -- 95
2018-01-18 10:00:00 9.1 0 Calma 8 Oeste 0.2 -- -- 94
2018-01-18 09:00:00 9.2 3 Oeste 9 Oeste 0 -- -- 92
2018-01-18 08:00:00 9 3 Oeste 6 Oeste 0 -- -- 93
2018-01-18 07:00:00 8.6 4 Oeste 6 Oeste 0 -- -- 91
2018-01-18 06:00:00 8.6 4 Oeste 6 Oeste 0 -- -- 88
2018-01-18 05:00:00 8.7 3 Oeste 7 Noroeste 0 -- -- 86
2018-01-18 04:00:00 8.9 3 Oeste 8 Oeste 0 -- -- 84
2018-01-18 03:00:00 8.7 4 Oeste 10 Sudoeste 0 -- -- 83
2018-01-18 02:00:00 8.4 5 Oeste 10 Oeste 0 -- -- 84
2018-01-18 01:00:00 7.8 4 Oeste 9 Oeste 0 -- -- 87
2018-01-18 00:00:00 7.7 4 Oeste 12 Sudoeste 0 -- -- 89
2018-01-17 23:00:00 7.7 8 Oeste 12 Oeste 0 -- -- 86
2018-01-17 22:00:00 8.7 6 Oeste 8 Oeste 0 -- -- 81
2018-01-17 21:00:00 10.8 2 Oeste 6 Sur 0 -- -- 75
2018-01-17 20:00:00 11.2 0 Calma 8 Oeste 0 -- -- 71
2018-01-17 19:00:00 11.9 4 Oeste 12 Noroeste 0 -- -- 68
2018-01-17 18:00:00 12.8 5 Oeste 18 Norte 0 -- -- 57
2018-01-17 17:00:00 13.4 8 Norte 22 Norte 0 -- -- 54
2018-01-17 16:00:00 13.9 9 Norte 24 Norte 0 -- -- 52
2018-01-17 15:00:00 15.3 9 Nordeste 18 Nordeste 0 -- -- 51
2018-01-17 14:00:00 13.6 0 Calma 10 Este 0 -- -- 61
2018-01-17 13:00:00 12.8 3 Sudeste 8 Este 0 -- -- 76
2018-01-17 12:00:00 11.7 3 Norte 7 Oeste 0 -- -- 81
2018-01-17 11:00:00 9.7 3 Oeste 10 Oeste 0 -- -- 86
2018-01-17 10:00:00 7.7 6 Oeste 13 Oeste 0 -- -- 88
2018-01-17 09:00:00 5 8 Oeste 12 Oeste 0 -- -- 95
2018-01-17 08:00:00 4.9 5 Noroeste 13 Oeste 0 -- -- 94
2018-01-17 07:00:00 5.3 7 Oeste 13 Oeste 0 -- -- 94
2018-01-17 06:00:00 5.1 7 Oeste 13 Oeste 0 -- -- 94
2018-01-17 05:00:00 4.8 5 Oeste 17 Oeste 0 -- -- 93
2018-01-17 04:00:00 6 8 Oeste 16 Oeste 0 -- -- 93
2018-01-17 03:00:00 5.9 8 Sudoeste 15 Oeste 0 -- -- 94
2018-01-17 02:00:00 6.5 9 Oeste 13 Oeste 0 -- -- 92
2018-01-17 01:00:00 5.5 8 Oeste 16 Oeste 0 -- -- 90
2018-01-17 00:00:00 6.1 7 Oeste 12 Oeste 0 -- -- 88
2018-01-16 23:00:00 6.7 6 Oeste 14 Oeste 0 -- -- 86
2018-01-16 22:00:00 6.9 8 Oeste 12 Oeste 0 -- -- 83
2018-01-16 21:00:00 7.5 6 Oeste 17 Oeste 0 -- -- 79
2018-01-16 20:00:00 8.3 8 Oeste 15 Oeste 0 -- -- 77
2018-01-16 19:00:00 9.2 7 Oeste 15 Oeste 0 -- -- 77
2018-01-16 18:00:00 10.6 4 Oeste 7 Oeste 0 -- -- 73
2018-01-16 17:00:00 13.4 3 Sur 5 Sur 0 -- -- 64
2018-01-16 16:00:00 15.5 0 Calma 9 Sudeste 0 -- -- 51
2018-01-16 15:00:00 15.3 5 Este 11 Sudeste 0 -- -- 52
2018-01-16 14:00:00 16.4 4 Este 12 Sudeste 0 -- -- 51
2018-01-16 13:00:00 15.5 6 Oeste 18 Oeste 0 -- -- 46
2018-01-16 12:00:00 13 12 Oeste 21 Oeste 0 -- -- 54
2018-01-16 11:00:00 11 10 Oeste 20 Oeste 0 -- -- 60
2018-01-16 10:00:00 7.2 8 Oeste 17 Oeste 0 -- -- 79
2018-01-16 09:00:00 3.9 8 Oeste 16 Oeste 0 -- -- 87
2018-01-16 08:00:00 3.5 9 Oeste 16 Oeste 0 -- -- 88
2018-01-16 07:00:00 3.8 8 Oeste 13 Oeste 0 -- -- 87
2018-01-16 06:00:00 4.7 5 Oeste 12 Oeste 0 -- -- 85
2018-01-16 05:00:00 5.8 4 Oeste 9 Oeste 0 -- -- 81
2018-01-16 04:00:00 7.3 6 Sudoeste 15 Sudoeste 0 -- -- 74
2018-01-16 03:00:00 7.2 8 Sudoeste 18 Sudoeste 0 -- -- 75
2018-01-16 02:00:00 7.2 7 Sudoeste 18 Oeste 0 -- -- 76
2018-01-16 01:00:00 6.5 7 Oeste 18 Sudoeste 0 -- -- 79
2018-01-16 00:00:00 6.2 8 Oeste 13 Sudoeste 0 -- -- 79
2018-01-15 23:00:00 5.9 4 Sudoeste 13 Oeste 0 -- -- 80
2018-01-15 22:00:00 6.5 4 Sudoeste 9 Noroeste 0 -- -- 81
2018-01-15 21:00:00 6.5 4 Sudoeste 8 Oeste 0 -- -- 82
2018-01-15 20:00:00 7 3 Oeste 6 Oeste 0 -- -- 83
2018-01-15 19:00:00 8.1 2 Oeste 8 Sur 0 -- -- 80
2018-01-15 18:00:00 9.7 3 Sur 15 Sur 0 -- -- 74
2018-01-15 17:00:00 11.3 7 Sudoeste 19 Sudoeste 0 -- -- 68
2018-01-15 16:00:00 12.8 8 Sudoeste 25 Sudoeste 0 -- -- 60
2018-01-15 15:00:00 13.4 11 Sur 24 Sudoeste 0 -- -- 58
2018-01-15 14:00:00 14.1 13 Sur 26 Sur 0 -- -- 61
2018-01-15 13:00:00 13.4 3 Sur 13 Oeste 0 -- -- 63
2018-01-15 12:00:00 11.5 6 Oeste 16 Sudoeste 0 -- -- 67
2018-01-15 11:00:00 9.4 8 Oeste 21 Oeste 0 -- -- 78
2018-01-15 10:00:00 7.2 9 Oeste 17 Noroeste 0 -- -- 86
2018-01-15 09:00:00 4.7 6 Oeste 16 Noroeste 0 -- -- 94
2018-01-15 08:00:00 5.3 10 Oeste 16 Oeste 0 -- -- 94
2018-01-15 07:00:00 5.7 8 Oeste 14 Oeste 0 -- -- 92
2018-01-15 06:00:00 6.4 7 Oeste 13 Sudoeste 0 -- -- 90
2018-01-15 05:00:00 7.6 7 Oeste 23 Norte 0 -- -- 84
2018-01-15 04:00:00 9.5 8 Norte 25 Norte 0 -- -- 69
2018-01-15 03:00:00 7.2 3 Sudoeste 9 Oeste 0 -- -- 88
2018-01-15 02:00:00 7.3 3 Oeste 7 Oeste 0 -- -- 87
2018-01-15 01:00:00 7.4 3 Oeste 10 Sudoeste 0 -- -- 86
2018-01-15 00:00:00 7.5 5 Oeste 11 Oeste 0 -- -- 86
2018-01-14 23:00:00 7.8 5 Oeste 9 Oeste 0 -- -- 83
2018-01-14 22:00:00 8.7 3 Sudoeste 10 Oeste 0 -- -- 79
2018-01-14 21:00:00 9.8 8 Noroeste 18 Noroeste 0 -- -- 69
2018-01-14 20:00:00 9.8 11 Norte 24 Norte 0 -- -- 69
2018-01-14 19:00:00 9.5 6 Noroeste 12 Noroeste 0 -- -- 80
2018-01-14 18:00:00 10.1 5 Noroeste 14 Noroeste 0 -- -- 78
2018-01-14 17:00:00 10.6 4 Noroeste 17 Noroeste 0 -- -- 71
2018-01-14 16:00:00 11.1 6 Norte 17 Nordeste 0 -- -- 71
2018-01-14 15:00:00 10.8 6 Nordeste 17 Nordeste 0 -- -- 74
2018-01-14 14:00:00 10.7 8 Norte 20 Norte 0 -- -- 77
2018-01-14 13:00:00 10.7 5 Norte 16 Norte 0 -- -- 80
2018-01-14 12:00:00 11.2 8 Noroeste 15 Noroeste 0 -- -- 82
2018-01-14 11:00:00 10.6 6 Oeste 16 Noroeste 0 -- -- 90
2018-01-14 10:00:00 9.7 8 Oeste 17 Oeste 0 -- -- 95
2018-01-14 09:00:00 8.1 8 Oeste 13 Oeste 0 -- -- 96
2018-01-14 08:00:00 8.5 5 Oeste 9 Oeste 0 -- -- 95
2018-01-14 07:00:00 8.9 3 Sudoeste 14 Sudeste 0.4 -- -- 94
2018-01-14 06:00:00 9.7 12 Sudeste 21 Sudeste 5.2 -- -- 92
2018-01-14 05:00:00 10 6 Sudeste 15 Sudeste 0 -- -- 89
2018-01-14 04:00:00 10.3 6 Sur 23 Oeste 0.4 -- -- 83
2018-01-14 03:00:00 11.1 11 Sudoeste 25 Sudoeste 0 -- -- 81
2018-01-14 02:00:00 11.5 0 Calma 24 Sur 0.2 -- -- 89
2018-01-14 01:00:00 11.5 8 Sur 27 Sur 0.2 -- -- 88
2018-01-14 00:00:00 11.6 11 Sur 35 Sudoeste 0.6 -- -- 88
2018-01-13 23:00:00 12.8 14 Sur 29 Sur 0 -- -- 72
2018-01-13 22:00:00 12.6 9 Sur 24 Sur 0 -- -- 74
2018-01-13 21:00:00 12.6 8 Sur 27 Sudoeste 0 -- -- 69
2018-01-13 20:00:00 12.4 10 Sur 28 Sudoeste 0 -- -- 70
2018-01-13 19:00:00 12.1 9 Sur 21 Sur 0 -- -- 72
2018-01-13 18:00:00 11.6 7 Sudoeste 19 Sudoeste 0 -- -- 73
2018-01-13 17:00:00 12.1 9 Sudoeste 22 Sur 0 -- -- 70
2018-01-13 16:00:00 12.4 10 Sudoeste 28 Sur 0 -- -- 65
2018-01-13 15:00:00 12.5 11 Sudoeste 28 Sudoeste 0 -- -- 61
2018-01-13 14:00:00 13.1 9 Sudoeste 37 Sudoeste 0 -- -- 57
2018-01-13 13:00:00 14.3 14 Sudoeste 29 Sur 0 -- -- 52
2018-01-13 12:00:00 12.6 9 Sudoeste 20 Sur 0 -- -- 57
2018-01-13 11:00:00 8.5 2 Noroeste 12 Oeste 0 -- -- 74
2018-01-13 10:00:00 4.2 7 Oeste 14 Oeste 0 -- -- 81
2018-01-13 09:00:00 0.3 9 Oeste 15 Oeste 0 -- -- 90
2018-01-13 08:00:00 -0.6 9 Oeste 17 Oeste 0 -- -- 92
2018-01-13 07:00:00 -0.4 8 Oeste 18 Oeste 0 -- -- 91
2018-01-13 06:00:00 0 9 Oeste 17 Oeste 0 -- -- 89
2018-01-13 05:00:00 0.3 8 Oeste 16 Oeste 0 -- -- 89
2018-01-13 04:00:00 0.8 8 Oeste 19 Oeste 0 -- -- 88
2018-01-13 03:00:00 2 10 Oeste 18 Oeste 0 -- -- 86
2018-01-13 02:00:00 1.9 10 Sudoeste 19 Sudoeste 0 -- -- 86
2018-01-13 01:00:00 2.3 10 Sudoeste 16 Sur 0 -- -- 84
2018-01-13 00:00:00 2.4 8 Sudoeste 15 Oeste 0 -- -- 81
2018-01-12 23:00:00 2.7 7 Oeste 15 Oeste 0 -- -- 81
2018-01-12 22:00:00 3.1 10 Oeste 15 Oeste 0 -- -- 80
2018-01-12 21:00:00 4.3 6 Oeste 13 Oeste 0 -- -- 77
2018-01-12 20:00:00 6.1 5 Oeste 12 Oeste 0 -- -- 71
2018-01-12 19:00:00 9.2 3 Oeste 9 Nordeste 0 -- -- 60
2018-01-12 18:00:00 11.9 5 Nordeste 21 Nordeste 0 -- -- 44
2018-01-12 17:00:00 12.8 10 Sur 15 Sur 0 -- -- 50
2018-01-12 16:00:00 14.2 4 Norte 22 Noroeste 0 -- -- 43
2018-01-12 15:00:00 14.2 10 Norte 19 Nordeste 0 -- -- 39
2018-01-12 14:00:00 14.3 9 Noroeste 22 Norte 0 -- -- 39
2018-01-12 13:00:00 13.7 11 Oeste 31 Noroeste 0 -- -- 40
2018-01-12 12:00:00 12.6 13 Noroeste 35 Noroeste 0 -- -- 43
2018-01-12 11:00:00 11.1 17 Noroeste 37 Noroeste 0 -- -- 51
2018-01-12 10:00:00 9.7 17 Noroeste 35 Norte 0 -- -- 57
2018-01-12 09:00:00 8.4 18 Norte 40 Norte 0 -- -- 62
2018-01-12 08:00:00 1.6 6 Oeste 24 Oeste 0 -- -- 91
2018-01-12 07:00:00 1.8 10 Oeste 23 Oeste 0 -- -- 90
2018-01-12 06:00:00 1 6 Oeste 15 Oeste 0 -- -- 93
2018-01-12 05:00:00 1.4 12 Oeste 19 Oeste 0 -- -- 92
2018-01-12 04:00:00 2.1 8 Oeste 15 Oeste 0 -- -- 92
2018-01-12 03:00:00 2.1 8 Oeste 13 Oeste 0 -- -- 92
2018-01-12 02:00:00 2.6 8 Oeste 15 Oeste 0 -- -- 91
2018-01-12 01:00:00 3.4 9 Oeste 17 Oeste 0 -- -- 89
2018-01-12 00:00:00 4.1 7 Oeste 17 Oeste 0 -- -- 85
2018-01-11 23:00:00 5.6 7 Oeste 23 Oeste 0 -- -- 80
2018-01-11 22:00:00 5.2 6 Oeste 13 Sudoeste 0 -- -- 87
2018-01-11 21:00:00 6.6 4 Oeste 10 Oeste 0 -- -- 83
2018-01-11 20:00:00 7.4 5 Sudoeste 10 Sudoeste 0 -- -- 81
2018-01-11 19:00:00 8.4 5 Oeste 10 Norte 0 -- -- 78
2018-01-11 18:00:00 10 3 Noroeste 8 Norte 0 -- -- 64
2018-01-11 17:00:00 11.7 0 Calma 5 Oeste 0 -- -- 69
2018-01-11 16:00:00 12.2 3 Sur 12 Sudoeste 0 -- -- 64
2018-01-11 15:00:00 12.1 7 Sudoeste 15 Sudoeste 0 -- -- 63
2018-01-11 14:00:00 12.9 8 Sur -- -- -- -- -- 59
2018-01-11 13:00:00 -- -- -- -- -- -- -- -- --
2018-01-11 12:00:00 12.8 5 Sudeste 12 Sur 0 -- -- 59
2018-01-11 11:00:00 9.5 3 Oeste 12 Oeste 0 -- -- 78
2018-01-11 10:00:00 7.5 5 Oeste 9 Oeste 0 -- -- 89
2018-01-11 09:00:00 6.8 5 Sudoeste 10 Oeste 0 -- -- 89
2018-01-11 08:00:00 6.8 5 Oeste 11 Oeste 0 -- -- 89
2018-01-11 07:00:00 7 5 Oeste 13 Oeste 0 -- -- 87
2018-01-11 06:00:00 7.3 5 Oeste 20 Oeste 0 -- -- 85
2018-01-11 05:00:00 7.9 12 Oeste 26 Oeste 0 -- -- 82
2018-01-11 04:00:00 8.7 14 Noroeste 38 Noroeste 0 -- -- 74
2018-01-11 03:00:00 8.9 19 Norte 39 Noroeste 0.2 -- -- 76
2018-01-11 02:00:00 9.7 17 Norte 37 Noroeste 0 -- -- 65
2018-01-11 01:00:00 5.9 7 Oeste 13 Oeste 0 -- -- 83
2018-01-11 00:00:00 5.5 6 Oeste 12 Oeste 0 -- -- 84
2018-01-10 23:00:00 5.3 6 Oeste 17 Oeste 0 -- -- 84
2018-01-10 22:00:00 5 6 Oeste 13 Oeste 0 -- -- 87
2018-01-10 21:00:00 4.6 6 Oeste 17 Oeste 0 -- -- 87
2018-01-10 20:00:00 5.4 5 Oeste 13 Oeste 0 -- -- 86
2018-01-10 19:00:00 6.1 4 Oeste 8 Sudoeste 0 -- -- 84
2018-01-10 18:00:00 8.1 2 Sudoeste 6 Sur 0 -- -- 76
2018-01-10 17:00:00 11 3 Sudeste 10 Sudeste 0 -- -- 67
2018-01-10 16:00:00 12.9 5 Sudeste 10 Sur 0 -- -- 60
2018-01-10 15:00:00 13.2 7 Sudeste 12 Este 0 -- -- 54
2018-01-10 14:00:00 13.5 7 Este 12 Este 0 -- -- 49
2018-01-10 13:00:00 14.2 5 Este 13 Oeste 0 -- -- 44
2018-01-10 12:00:00 11.5 8 Oeste 21 Noroeste 0 -- -- 53
2018-01-10 11:00:00 8.6 10 Oeste 19 Oeste 0 -- -- 62
2018-01-10 10:00:00 5.1 7 Oeste 14 Oeste 0 -- -- 77
2018-01-10 09:00:00 3.5 8 Oeste 14 Oeste 0 -- -- 80
2018-01-10 08:00:00 4.2 8 Oeste 12 Oeste 0 -- -- 75
2018-01-10 07:00:00 5 5 Sudoeste 11 Oeste 0 -- -- 71
2018-01-10 06:00:00 6.2 4 Oeste 17 Oeste 0 -- -- 66
2018-01-10 05:00:00 7.6 9 Oeste 23 Oeste 0 -- -- 61
2018-01-10 04:00:00 9.2 9 Oeste 29 Noroeste 0 -- -- 55
2018-01-10 03:00:00 10.6 13 Oeste 33 Oeste 0 -- -- 50
2018-01-10 02:00:00 10.9 14 Sudoeste 35 Sudoeste 0 -- -- 45
2018-01-10 01:00:00 11 14 Oeste 36 Oeste 0 -- -- 43
2018-01-10 00:00:00 11.6 13 Oeste 34 Oeste 0 -- -- 39
2018-01-09 23:00:00 10.7 8 Sudoeste 26 Sudoeste 0 -- -- 44
2018-01-09 22:00:00 11.1 13 Oeste 34 Sudoeste 0 -- -- 45
2018-01-09 21:00:00 10.9 13 Sudoeste 31 Sudoeste 0 -- -- 53
2018-01-09 20:00:00 11 13 Sudoeste 24 Sudoeste 0 -- -- 48
2018-01-09 19:00:00 11.1 11 Sudoeste 29 Sudoeste 0 -- -- 51
2018-01-09 18:00:00 11.4 10 Sudoeste 32 Sudoeste 0 -- -- 54
2018-01-09 17:00:00 12.1 12 Sudoeste 30 Sudoeste 0 -- -- 55
2018-01-09 16:00:00 13.2 18 Sudoeste 35 Sudoeste 0 -- -- 45
2018-01-09 15:00:00 14.6 15 Sudoeste 28 Sur 0 -- -- 43
2018-01-09 14:00:00 14.7 15 Sur 38 Sudoeste 0 -- -- 42
2018-01-09 13:00:00 15 15 Sudoeste 41 Sudoeste 0 -- -- 35
2018-01-09 12:00:00 13.9 14 Sudoeste 31 Sudoeste 0 -- -- 39
2018-01-09 11:00:00 9.7 7 Sudoeste 13 Sur 0 -- -- 69
2018-01-09 10:00:00 5.6 7 Sudoeste 14 Oeste 0 -- -- 87
2018-01-09 09:00:00 3.2 7 Oeste 14 Sudoeste 0 -- -- 94
2018-01-09 08:00:00 3.4 8 Oeste 16 Sudoeste 0 -- -- 94
2018-01-09 07:00:00 4 5 Sudoeste 10 Sudoeste 0 -- -- 94
2018-01-09 06:00:00 4.7 5 Sudoeste 9 Oeste 0 -- -- 93
2018-01-09 05:00:00 5.9 5 Oeste 12 Sudoeste 0 -- -- 92
2018-01-09 04:00:00 7.1 6 Oeste 12 Oeste 0 -- -- 94
2018-01-09 03:00:00 7.7 4 Oeste 10 Oeste 0 -- -- 93
2018-01-09 02:00:00 8.1 6 Oeste 12 Oeste 0 -- -- 93
2018-01-09 01:00:00 8.2 5 Oeste 9 Oeste 0 -- -- 93
2018-01-09 00:00:00 8.6 4 Oeste 7 Oeste 0 -- -- 91
2018-01-08 23:00:00 9.1 5 Oeste 7 Oeste 0 -- -- 91
2018-01-08 22:00:00 10 3 Oeste 9 Noroeste 0 -- -- 86
2018-01-08 21:00:00 11 5 Sudoeste 22 Norte 0 -- -- 73
2018-01-08 20:00:00 10.4 4 Sudoeste 15 Noroeste 0 -- -- 80
2018-01-08 19:00:00 10.9 6 Oeste 22 Noroeste 0 -- -- 78
2018-01-08 18:00:00 11.2 12 Norte 29 Norte 0 -- -- 79
2018-01-08 17:00:00 11.6 12 Norte 24 Norte 0 -- -- 77
2018-01-08 16:00:00 12.4 8 Norte 27 Norte 0 -- -- 74
2018-01-08 15:00:00 12.6 14 Norte 24 Norte 0 -- -- 73
2018-01-08 14:00:00 11.4 8 Noroeste 16 Oeste 0 -- -- 75
2018-01-08 13:00:00 9.6 4 Oeste 13 Oeste 0 -- -- 86
2018-01-08 12:00:00 8.5 9 Oeste 21 Oeste 0 -- -- 88
2018-01-08 11:00:00 6.5 12 Oeste 21 Oeste 0 -- -- 97
2018-01-08 10:00:00 5 6 Oeste 17 Oeste 0 -- -- 97
2018-01-08 09:00:00 4.6 9 Oeste 21 Oeste 0 -- -- 97
2018-01-08 08:00:00 3.8 9 Oeste 18 Oeste 0 -- -- 98
2018-01-08 07:00:00 3.7 6 Oeste 19 Oeste 0 -- -- 98
2018-01-08 06:00:00 3.5 6 Oeste 15 Oeste 0 -- -- 98
2018-01-08 05:00:00 3.6 9 Oeste 15 Oeste 0 -- -- 98
2018-01-08 04:00:00 4.2 8 Oeste 14 Oeste 0 -- -- 97
2018-01-08 03:00:00 4.4 6 Oeste 14 Oeste 0 -- -- 98
2018-01-08 02:00:00 4.8 7 Oeste 12 Oeste 0 -- -- 97
2018-01-08 01:00:00 5.3 5 Oeste 12 Oeste 0 -- -- 96
2018-01-08 00:00:00 5.9 5 Oeste 9 Oeste 0 -- -- 94
2018-01-07 23:00:00 7.5 3 Sudeste 9 Oeste 0 -- -- 93
2018-01-07 22:00:00 8.4 0 Calma 7 Noroeste 0 -- -- 94
2018-01-07 21:00:00 8.7 3 Sudoeste 12 Sur 0 -- -- 95
2018-01-07 20:00:00 8.7 3 Oeste 23 Oeste 1.8 -- -- 94
2018-01-07 19:00:00 8.7 13 Oeste 26 Oeste 3.4 -- -- 93
2018-01-07 18:00:00 9 11 Oeste 27 Oeste 0.8 -- -- 93
2018-01-07 17:00:00 9.7 14 Oeste 28 Noroeste 0 -- -- 85
2018-01-07 16:00:00 10 8 Oeste 31 Oeste 0 -- -- 85
2018-01-07 15:00:00 10.6 20 Noroeste 33 Noroeste 0 -- -- 86
2018-01-07 14:00:00 11.4 12 Oeste 24 Oeste 1.8 -- -- 90
2018-01-07 13:00:00 12.5 7 Oeste 19 Sur 1 -- -- 88
2018-01-07 12:00:00 14.2 4 Este 15 Sudeste 0 -- -- 84
2018-01-07 11:00:00 14.3 5 Este 13 Este 0 -- -- 85
2018-01-07 10:00:00 14 4 Este 19 Sudeste 0 -- -- 83
2018-01-07 09:00:00 14.2 8 Sudeste 22 Sur 0 -- -- 79
2018-01-07 08:00:00 13.6 10 Este 24 Nordeste 0 -- -- 94
2018-01-07 07:00:00 11.4 2 Sudoeste 4 Sudoeste 0 -- -- 95
2018-01-07 06:00:00 12 0 Calma 5 Sur 0 -- -- 94
2018-01-07 05:00:00 12.8 0 Calma 8 Nordeste 0 -- -- 93
2018-01-07 04:00:00 13.6 4 Nordeste 15 Nordeste 0 -- -- 93
2018-01-07 03:00:00 13.8 7 Este 20 Nordeste 0 -- -- 92
2018-01-07 02:00:00 13.8 8 Nordeste 20 Este 0 -- -- 91
2018-01-07 01:00:00 13.8 10 Este 21 Nordeste 0 -- -- 90
2018-01-07 00:00:00 13.9 9 Nordeste 25 Nordeste 0 -- -- 89
2018-01-06 23:00:00 13.8 10 Este 24 Este 0 -- -- 89
2018-01-06 22:00:00 13.6 12 Este 26 Este 0 -- -- 90
2018-01-06 21:00:00 13.6 12 Este 28 Este 0 -- -- 90
2018-01-06 20:00:00 13.6 15 Este 29 Este 0 -- -- 90
2018-01-06 19:00:00 13.6 16 Este 30 Este 0 -- -- 91
2018-01-06 18:00:00 13.6 12 Este 22 Este 0 -- -- 92
2018-01-06 17:00:00 13.8 10 Este 21 Este 0 -- -- 92
2018-01-06 16:00:00 14.3 9 Este 19 Este 0 -- -- 87
2018-01-06 15:00:00 14.8 8 Este 15 Este 0 -- -- 84
2018-01-06 14:00:00 15.4 4 Este 14 Este 0 -- -- 79
2018-01-06 13:00:00 14 4 Nordeste 9 Este 0 -- -- 83
2018-01-06 12:00:00 10.4 3 Noroeste 9 Oeste 0 -- -- 81
2018-01-06 11:00:00 8.2 5 Oeste 12 Oeste 0 -- -- 83
2018-01-06 10:00:00 6.4 8 Oeste 15 Oeste 0 -- -- 86
2018-01-06 09:00:00 4.4 8 Oeste 16 Oeste 0 -- -- 90
2018-01-06 08:00:00 4.4 9 Oeste 15 Oeste 0 -- -- 89
2018-01-06 07:00:00 4.1 4 Oeste 10 Oeste 0 -- -- 90
2018-01-06 06:00:00 4.1 7 Oeste 14 Oeste 0 -- -- 90
2018-01-06 05:00:00 4 7 Oeste 12 Oeste 0 -- -- 90
2018-01-06 04:00:00 4.2 7 Oeste 14 Oeste 0 -- -- 90
2018-01-06 03:00:00 4.9 7 Oeste 15 Oeste 0 -- -- 88
2018-01-06 02:00:00 4.7 7 Oeste 12 Oeste 0 -- -- 88
2018-01-06 01:00:00 5.5 8 Oeste 14 Oeste 0 -- -- 86
2018-01-06 00:00:00 6.5 8 Oeste 13 Oeste 0 -- -- 82
2018-01-05 23:00:00 7.4 5 Oeste 14 Oeste 0 -- -- 82
2018-01-05 22:00:00 7.7 7 Oeste 14 Oeste 0 -- -- 79
2018-01-05 21:00:00 8.2 7 Oeste 16 Oeste 0 -- -- 78
2018-01-05 20:00:00 8.8 9 Oeste 14 Oeste 0 -- -- 78
2018-01-05 19:00:00 9.9 5 Oeste 8 Oeste 0 -- -- 76
2018-01-05 18:00:00 12.4 3 Sur 7 Sur 0 -- -- 68
2018-01-05 17:00:00 16.2 5 Sur 21 Sur 0 -- -- 59
2018-01-05 16:00:00 17.9 11 Sudoeste 25 Sur 0 -- -- 49
2018-01-05 15:00:00 18.7 10 Sur 31 Sur 0 -- -- 48
2018-01-05 14:00:00 20 14 Sudoeste 28 Sudoeste 0 -- -- 41
2018-01-05 13:00:00 20.2 9 Sudoeste 21 Sudoeste 0 -- -- 43
2018-01-05 12:00:00 18.4 8 Sudoeste 19 Sudoeste 0 -- -- 50
2018-01-05 11:00:00 14.9 8 Sudoeste 15 Oeste 0 -- -- 66
2018-01-05 10:00:00 10.6 9 Sudoeste 20 Sudoeste 0 -- -- 79
2018-01-05 09:00:00 6 9 Oeste 18 Oeste 0 -- -- 95
2018-01-05 08:00:00 6.2 6 Oeste 18 Sudoeste 0 -- -- 94
2018-01-05 07:00:00 7 6 Oeste 14 Oeste 0 -- -- 95
2018-01-05 06:00:00 7.1 6 Oeste 12 Oeste 0 -- -- 95
2018-01-05 05:00:00 7 6 Oeste 15 Oeste 0 -- -- 94
2018-01-05 04:00:00 7.4 8 Oeste 15 Oeste 0 -- -- 94
2018-01-05 03:00:00 8.1 8 Oeste 15 Oeste 0 -- -- 95
2018-01-05 02:00:00 8.2 9 Sudoeste 19 Sudoeste 0 -- -- 94
2018-01-05 01:00:00 8.2 6 Oeste 13 Oeste 0 -- -- 93
2018-01-05 00:00:00 8.6 5 Oeste 12 Oeste 0 -- -- 91
2018-01-04 23:00:00 9.7 7 Oeste 13 Sudoeste 0 -- -- 90
2018-01-04 22:00:00 10.3 4 Noroeste 12 Sudoeste 0 -- -- 91
2018-01-04 21:00:00 10 8 Oeste 13 Oeste 0 -- -- 91
2018-01-04 20:00:00 10.2 6 Oeste 10 Oeste 0 -- -- 90
2018-01-04 19:00:00 11.4 3 Oeste 6 Oeste 0 -- -- 86
2018-01-04 18:00:00 13.2 2 Oeste 5 Oeste 0 -- -- 82
2018-01-04 17:00:00 15 0 Calma 8 Este 0 -- -- 80
2018-01-04 16:00:00 15.8 5 Este 17 Nordeste 0 -- -- 74
2018-01-04 15:00:00 18.5 6 Este 14 Este 0 -- -- 61
2018-01-04 14:00:00 18.5 6 Este 12 Este 0 -- -- 63
2018-01-04 13:00:00 17.7 5 Este 18 Sudeste 0 -- -- 67
2018-01-04 12:00:00 17.9 5 Sudoeste 10 Sudoeste 0 -- -- 64
2018-01-04 11:00:00 13.5 6 Oeste 14 Noroeste 0 -- -- 80
2018-01-04 10:00:00 9.5 9 Oeste 17 Sudoeste 0 -- -- 92
2018-01-04 09:00:00 7.6 8 Oeste 16 Oeste 0 -- -- 95
2018-01-04 08:00:00 7.1 6 Oeste 14 Oeste 0 -- -- 96
2018-01-04 07:00:00 6.9 7 Oeste 14 Oeste 0 -- -- 96
2018-01-04 06:00:00 7.2 8 Oeste 16 Oeste 0 -- -- 94
2018-01-04 05:00:00 7.4 7 Oeste 14 Oeste 0 -- -- 95
2018-01-04 04:00:00 7.3 7 Oeste 14 Oeste 0 -- -- 95
2018-01-04 03:00:00 7.9 7 Oeste 14 Sudoeste 0 -- -- 92
2018-01-04 02:00:00 7.9 6 Oeste 14 Oeste 0 -- -- 91
2018-01-04 01:00:00 8.5 6 Oeste 14 Oeste 0 -- -- 89
2018-01-04 00:00:00 8.8 4 Oeste 15 Oeste 0 -- -- 87
2018-01-03 23:00:00 8.5 7 Oeste 13 Oeste 0 -- -- 89
2018-01-03 22:00:00 8.9 5 Oeste 13 Oeste 0 -- -- 87
2018-01-03 21:00:00 9.3 6 Oeste 11 Oeste 0 -- -- 86
2018-01-03 20:00:00 10.6 4 Oeste 12 Oeste 0 -- -- 84
2018-01-03 19:00:00 11.8 7 Oeste 13 Oeste 0 -- -- 83
2018-01-03 18:00:00 13.4 3 Oeste 9 Sudeste 0 -- -- 77
2018-01-03 17:00:00 15.8 3 Oeste 8 Oeste 0 -- -- 69
2018-01-03 16:00:00 17.3 2 Noroeste 9 Este 0 -- -- 63
2018-01-03 15:00:00 16.9 5 Este 15 Nordeste 0 -- -- 68
2018-01-03 14:00:00 19.2 6 Oeste 22 Noroeste 0 -- -- 51
2018-01-03 13:00:00 18.1 7 Oeste 21 Oeste 0 -- -- 57
2018-01-03 12:00:00 14.9 10 Oeste 24 Oeste 0 -- -- 66
2018-01-03 11:00:00 12.2 12 Oeste 21 Oeste 0 -- -- 76
2018-01-03 10:00:00 8.8 7 Oeste 17 Oeste 0 -- -- 87
2018-01-03 09:00:00 7.1 9 Oeste 17 Oeste 0 -- -- 91
2018-01-03 08:00:00 6.9 9 Oeste 17 Oeste 0 -- -- 90
2018-01-03 07:00:00 7.1 8 Oeste 18 Sudoeste 0 -- -- 89
2018-01-03 06:00:00 7.5 9 Oeste 19 Sudoeste 0 -- -- 87
2018-01-03 05:00:00 7.8 8 Oeste 14 Oeste 0 -- -- 87
2018-01-03 04:00:00 7.8 8 Oeste 15 Oeste 0 -- -- 86
2018-01-03 03:00:00 7.5 8 Oeste 19 Oeste 0 -- -- 86
2018-01-03 02:00:00 7.7 7 Oeste 14 Oeste 0 -- -- 84
2018-01-03 01:00:00 7.6 8 Oeste 14 Sudoeste 0 -- -- 84
2018-01-03 00:00:00 7.7 8 Sudoeste 18 Oeste 0 -- -- 84
2018-01-02 23:00:00 7.5 6 Oeste 14 Sudoeste 0 -- -- 85
2018-01-02 22:00:00 7.8 8 Oeste 14 Oeste 0 -- -- 87
2018-01-02 21:00:00 7.7 7 Oeste 13 Oeste 0 -- -- 88
2018-01-02 20:00:00 8.1 5 Oeste 11 Oeste 0 -- -- 88
2018-01-02 19:00:00 9.1 5 Oeste 15 Sur 0 -- -- 88
2018-01-02 18:00:00 10.3 4 Oeste 8 Noroeste 0 -- -- 84
2018-01-02 17:00:00 12.2 3 Norte 15 Sudoeste 0 -- -- 76
2018-01-02 16:00:00 13.4 3 Sur 7 Sudoeste 0 -- -- 70
2018-01-02 15:00:00 13.3 0 Calma 9 Nordeste 0 -- -- 67
2018-01-02 14:00:00 12.9 3 Este 5 Nordeste 0 -- -- 69
2018-01-02 13:00:00 12.3 3 Noroeste 10 Oeste 0 -- -- 67
2018-01-02 12:00:00 10 5 Oeste 14 Oeste 0 -- -- 75
2018-01-02 11:00:00 7.6 8 Sudoeste 14 Oeste 0 -- -- 80
2018-01-02 10:00:00 5.7 8 Oeste 16 Oeste 0 -- -- 86
2018-01-02 09:00:00 3.6 8 Oeste 16 Oeste 0 -- -- 92
2018-01-02 08:00:00 3.3 8 Oeste 12 Sudoeste 0 -- -- 95
2018-01-02 07:00:00 2.1 6 Oeste 11 Oeste 0 -- -- 92
2018-01-02 06:00:00 1.8 6 Oeste 9 Oeste 0 -- -- 90
2018-01-02 05:00:00 2.3 4 Oeste 10 Oeste 0 -- -- 89
2018-01-02 04:00:00 3.4 7 Oeste 11 Oeste 0 -- -- 85
2018-01-02 03:00:00 4.4 7 Oeste 13 Oeste 0 -- -- 84
2018-01-02 02:00:00 5 5 Oeste 10 Oeste 0 -- -- 79
2018-01-02 01:00:00 7.2 5 Sudoeste 14 Oeste 0 -- -- 75
2018-01-02 00:00:00 8.9 9 Noroeste 21 Noroeste 0 -- -- 72
2018-01-01 23:00:00 10.4 8 Oeste 18 Oeste 0 -- -- 61
2018-01-01 22:00:00 11.3 10 Noroeste 19 Oeste 0 -- -- 59
2018-01-01 21:00:00 10.8 4 Sudoeste 16 Noroeste 0 -- -- 55
2018-01-01 20:00:00 13.9 10 Noroeste 40 Noroeste 0 -- -- 43
2018-01-01 19:00:00 14.1 20 Oeste 42 Oeste 0 -- -- 41
2018-01-01 18:00:00 13.5 13 Sudoeste 49 Oeste 0 -- -- 40
2018-01-01 17:00:00 14.1 25 Oeste 47 Oeste 0 -- -- 38
2018-01-01 16:00:00 14.4 15 Sudoeste 41 Sudoeste 0 -- -- 37
2018-01-01 15:00:00 13.8 17 Sudoeste 35 Sudoeste 0 -- -- 42
2018-01-01 14:00:00 13.7 4 Sudoeste 28 Sudeste 0 -- -- 50
2018-01-01 13:00:00 15.1 14 Sur 26 Sur 0 -- -- 42
2018-01-01 12:00:00 13.5 6 Oeste 14 Oeste 0 -- -- 52
2018-01-01 11:00:00 11.4 10 Oeste 17 Noroeste 0 -- -- 69
2018-01-01 10:00:00 7.5 5 Oeste 15 Oeste 0 -- -- 93
2018-01-01 09:00:00 4.6 2 Sudoeste 9 Oeste 0 -- -- 95
2018-01-01 08:00:00 5.6 6 Oeste 13 Oeste 0 -- -- 95
2018-01-01 07:00:00 6.5 5 Oeste 12 Sudoeste 0 -- -- 94
2018-01-01 06:00:00 7.2 6 Oeste 13 Oeste 0 -- -- 95
2018-01-01 05:00:00 7.8 4 Oeste 8 Norte 0 -- -- 93
2018-01-01 04:00:00 9.1 0 Calma 8 Nordeste 0.2 -- -- 94
2018-01-01 03:00:00 9 3 Sudoeste 9 Oeste 0 -- -- 91
2018-01-01 02:00:00 8.4 3 Este 8 Oeste 0 -- -- 91
2018-01-01 01:00:00 7.3 4 Oeste 7 Oeste 0 -- -- 90
2018-01-01 00:00:00 6.7 3 Sudeste 8 Noroeste 0 -- -- 87
2017-12-31 23:00:00 7.3 2 Oeste 9 Oeste 0 -- -- 82
2017-12-31 22:00:00 8.2 6 Oeste 10 Oeste 0 -- -- 76
2017-12-31 21:00:00 10.8 4 Sudoeste 9 Oeste 0 -- -- 66
2017-12-31 20:00:00 13.7 10 Oeste 18 Noroeste 0 -- -- 53
2017-12-31 19:00:00 12.2 7 Oeste 17 Sudoeste 0 -- -- 63
2017-12-31 18:00:00 13.5 4 Este 12 Noroeste 0 -- -- 64
2017-12-31 17:00:00 15.4 5 Oeste 21 Sur 0 -- -- 62
2017-12-31 16:00:00 16 4 Sudoeste 22 Sur 0 -- -- 66
2017-12-31 15:00:00 16.2 8 Oeste 27 Sur 0 -- -- 62
2017-12-31 14:00:00 17.3 6 Sur 30 Sudoeste 0 -- -- 55
2017-12-31 13:00:00 16.8 7 Sur 28 Sur 0 -- -- 59
2017-12-31 12:00:00 17.1 10 Sur 21 Sudoeste 0 -- -- 57
2017-12-31 11:00:00 11.8 4 Oeste 12 Oeste 0 -- -- 80
2017-12-31 10:00:00 7.6 6 Oeste 15 Sudoeste 0 -- -- 96
2017-12-31 09:00:00 4.2 5 Oeste 19 Oeste 0 -- -- 94
2017-12-31 08:00:00 4.5 8 Oeste 16 Sudoeste 0 -- -- 95
2017-12-31 07:00:00 4.8 9 Oeste 16 Oeste 0 -- -- 93
2017-12-31 06:00:00 5.5 9 Oeste 15 Oeste 0 -- -- 94
2017-12-31 05:00:00 5.4 8 Oeste 19 Oeste 0 -- -- 93
2017-12-31 04:00:00 5.7 10 Oeste 18 Oeste 0 -- -- 92
2017-12-31 03:00:00 5.8 9 Oeste 16 Sudoeste 0 -- -- 91
2017-12-31 02:00:00 6 9 Oeste 16 Oeste 0 -- -- 90
2017-12-31 01:00:00 6.2 8 Oeste 15 Sudoeste 0 -- -- 88